Tres Piedras, NM

5:35 AM MST on December 25, 2014 (GMT -0700)
Angel Fire | Change Station
CLOSE
Current Station
Airport
Location: Angel Fire,
Elevation: 8379 ft
Nearby Weather Stations
Active Advisory: Winter Storm Warning Active Notice: Public Information Statement

Elev 8379 ft 36.42 °N, 105.29 °W | Updated 20 minutes ago

Overcast
Overcast
26 °F
Feels Like 18 °F
N
7
Wind Variable Wind from West

Today
High -- | Low -- °F
--% Chance of Precip.
Yesterday
High -- | Low -- °F
Precip. -- in
7:14 AM 4:53 PM
Waxing Crescent, 16% visible
Pressure 29.68 in
Visibility 10.0 miles
Clouds Scattered Clouds 5500 ft
Scattered Clouds 8500 ft
Overcast 11000 ft
Windchill 18 °F
Dew Point 11 °F
Humidity 54%
Rainfall 0.00 in
Snow Depth Not available.
UV 0 out of 12
Pollen .10 out of 12
Air Quality Not available.
Flu Activity Not available.
METAR KAXX 251215Z AUTO 27006KT 10SM SCT055 SCT085 OVC110 M03/M11 A2968 RMK AO2 T10331115

More Conditions Fewer Conditions

Pressure 29.68 in
Visibility 10.0 miles
Clouds Scattered Clouds 5500 ft
Scattered Clouds 8500 ft
Overcast 11000 ft
Windchill 18 °F
Dew Point 11 °F
Humidity 54%
Rainfall 0.00 in
Snow Depth Not available.
UV 0 out of 12
Pollen .10 out of 12
Air Quality Not available.
Flu Activity Not available.
METAR KAXX 251215Z AUTO 27006KT 10SM SCT055 SCT085 OVC110 M03/M11 A2968 RMK AO2 T10331115

More Conditions Fewer Conditions

10-Day Weather Forecast

Almanac

Astronomy

Dec. 25, 2014 Rise Set
Actual Time
Civil Twilight
Nautical Twilight
Astronomical Twilight
Moon
Length of Visible Light
Length of Day
Tomorrow will be .
, % of the Moon is Illuminated

Today's Extremes

State Highs State Lows

Community

WunderPhotos

Upload Photos

1,780,266 photos uploaded!

WunderBlogs® & News

Nearby

Air Quality

  Air Quality AQ Index Pollutant
Not available.

Snow Depth

Station Depth Elevation

Earthquake Activity

City Distance Mag. Time & Date
Minimum magnitude displayed is 2.5.

Coastal Water Temperatures

Place Temperature

Nearby Weather Stations